sensor_id;sensor_type;location;lat;lon;timestamp;pressure;altitude;pressure_sealevel;temperature;humidity
23616;BME280;11985;49.404;7.734;2023-05-02T00:03:11;97448.00;;;7.13;100.00
23616;BME280;11985;49.404;7.734;2023-05-02T00:08:15;97446.09;;;7.07;100.00
23616;BME280;11985;49.404;7.734;2023-05-02T00:13:17;97451.47;;;6.91;100.00
23616;BME280;11985;49.404;7.734;2023-05-02T00:18:18;97443.06;;;6.80;100.00
23616;BME280;11985;49.404;7.734;2023-05-02T00:23:21;97451.63;;;6.74;100.00
23616;BME280;11985;49.404;7.734;2023-05-02T00:28:23;97450.00;;;6.73;100.00
23616;BME280;11985;49.404;7.734;2023-05-02T00:33:25;97443.19;;;6.64;100.00
23616;BME280;11985;49.404;7.734;2023-05-02T00:38:28;97441.28;;;6.58;100.00
23616;BME280;11985;49.404;7.734;2023-05-02T00:43:31;97448.22;;;6.51;100.00
23616;BME280;11985;49.404;7.734;2023-05-02T00:48:33;97451.16;;;6.48;100.00
23616;BME280;11985;49.404;7.734;2023-05-02T00:53:36;97456.75;;;6.45;100.00
23616;BME280;11985;49.404;7.734;2023-05-02T00:58:39;97449.63;;;6.39;100.00
23616;BME280;11985;49.404;7.734;2023-05-02T01:03:47;97453.56;;;6.34;100.00
23616;BME280;11985;49.404;7.734;2023-05-02T01:08:59;97456.88;;;6.28;100.00
23616;BME280;11985;49.404;7.734;2023-05-02T01:14:04;97457.91;;;6.19;100.00
23616;BME280;11985;49.404;7.734;2023-05-02T01:19:08;97467.06;;;6.15;100.00
23616;BME280;11985;49.404;7.734;2023-05-02T01:24:19;97475.78;;;6.07;100.00
23616;BME280;11985;49.404;7.734;2023-05-02T01:29:26;97482.53;;;6.02;100.00
23616;BME280;11985;49.404;7.734;2023-05-02T01:34:28;97486.47;;;5.98;100.00
23616;BME280;11985;49.404;7.734;2023-05-02T01:39:33;97481.91;;;5.92;100.00
23616;BME280;11985;49.404;7.734;2023-05-02T01:44:38;97478.97;;;5.87;100.00
23616;BME280;11985;49.404;7.734;2023-05-02T01:49:41;97485.88;;;5.79;100.00
23616;BME280;11985;49.404;7.734;2023-05-02T01:54:44;97484.06;;;5.80;100.00
23616;BME280;11985;49.404;7.734;2023-05-02T01:59:48;97505.78;;;5.80;100.00
23616;BME280;11985;49.404;7.734;2023-05-02T02:04:51;97504.78;;;5.81;100.00
23616;BME280;11985;49.404;7.734;2023-05-02T02:09:53;97506.09;;;5.86;100.00
23616;BME280;11985;49.404;7.734;2023-05-02T02:14:59;97516.72;;;5.84;100.00
23616;BME280;11985;49.404;7.734;2023-05-02T02:20:05;97523.81;;;5.67;100.00
23616;BME280;11985;49.404;7.734;2023-05-02T02:25:10;97536.88;;;5.59;100.00
23616;BME280;11985;49.404;7.734;2023-05-02T02:30:14;97537.91;;;5.50;100.00
23616;BME280;11985;49.404;7.734;2023-05-02T02:35:16;97531.38;;;5.46;100.00
23616;BME280;11985;49.404;7.734;2023-05-02T02:40:22;97543.13;;;5.42;100.00
23616;BME280;11985;49.404;7.734;2023-05-02T02:45:33;97543.63;;;5.37;100.00
23616;BME280;11985;49.404;7.734;2023-05-02T02:50:43;97548.69;;;5.30;100.00
23616;BME280;11985;49.404;7.734;2023-05-02T02:55:55;97549.53;;;5.15;100.00
23616;BME280;11985;49.404;7.734;2023-05-02T03:01:02;97555.88;;;5.04;100.00
23616;BME280;11985;49.404;7.734;2023-05-02T03:06:05;97556.88;;;5.03;100.00
23616;BME280;11985;49.404;7.734;2023-05-02T03:11:07;97566.66;;;4.93;100.00
23616;BME280;11985;49.404;7.734;2023-05-02T03:16:28;97572.19;;;4.82;100.00
23616;BME280;11985;49.404;7.734;2023-05-02T03:21:31;97567.47;;;4.85;100.00
23616;BME280;11985;49.404;7.734;2023-05-02T03:26:33;97569.94;;;4.79;100.00
23616;BME280;11985;49.404;7.734;2023-05-02T03:31:36;97572.19;;;4.82;100.00
23616;BME280;11985;49.404;7.734;2023-05-02T03:36:38;97579.38;;;4.80;100.00
23616;BME280;11985;49.404;7.734;2023-05-02T03:41:39;97593.38;;;4.70;100.00
23616;BME280;11985;49.404;7.734;2023-05-02T03:46:45;97603.19;;;4.68;100.00
23616;BME280;11985;49.404;7.734;2023-05-02T03:51:46;97609.53;;;4.82;100.00
23616;BME280;11985;49.404;7.734;2023-05-02T03:56:48;97606.81;;;5.08;100.00
23616;BME280;11985;49.404;7.734;2023-05-02T04:01:51;97616.44;;;5.32;100.00
23616;BME280;11985;49.404;7.734;2023-05-02T04:06:53;97621.50;;;5.42;100.00
23616;BME280;11985;49.404;7.734;2023-05-02T04:11:54;97621.31;;;5.43;100.00
23616;BME280;11985;49.404;7.734;2023-05-02T04:16:57;97622.16;;;5.27;100.00
23616;BME280;11985;49.404;7.734;2023-05-02T04:21:59;97628.00;;;5.21;100.00
23616;BME280;11985;49.404;7.734;2023-05-02T04:27:00;97628.19;;;5.12;100.00
23616;BME280;11985;49.404;7.734;2023-05-02T04:32:04;97630.63;;;5.05;100.00
23616;BME280;11985;49.404;7.734;2023-05-02T04:37:05;97636.69;;;5.06;100.00
23616;BME280;11985;49.404;7.734;2023-05-02T04:42:07;97643.38;;;5.24;100.00
23616;BME280;11985;49.404;7.734;2023-05-02T04:47:10;97657.75;;;5.45;100.00
23616;BME280;11985;49.404;7.734;2023-05-02T04:52:12;97657.09;;;5.51;100.00
23616;BME280;11985;49.404;7.734;2023-05-02T04:57:14;97664.28;;;5.57;100.00
23616;BME280;11985;49.404;7.734;2023-05-02T05:02:17;97672.78;;;5.67;100.00
23616;BME280;11985;49.404;7.734;2023-05-02T05:07:18;97681.56;;;5.82;100.00
23616;BME280;11985;49.404;7.734;2023-05-02T05:12:20;97689.72;;;6.04;100.00
23616;BME280;11985;49.404;7.734;2023-05-02T05:17:24;97696.03;;;6.34;100.00
23616;BME280;11985;49.404;7.734;2023-05-02T05:22:25;97693.13;;;6.68;100.00
23616;BME280;11985;49.404;7.734;2023-05-02T05:27:27;97702.09;;;7.05;100.00
23616;BME280;11985;49.404;7.734;2023-05-02T05:32:31;97712.38;;;7.37;100.00
23616;BME280;11985;49.404;7.734;2023-05-02T05:37:33;97717.66;;;7.75;100.00
23616;BME280;11985;49.404;7.734;2023-05-02T05:42:36;97724.16;;;8.02;100.00
23616;BME280;11985;49.404;7.734;2023-05-02T05:47:39;97726.91;;;8.24;100.00
23616;BME280;11985;49.404;7.734;2023-05-02T05:52:41;97735.94;;;8.44;100.00
23616;BME280;11985;49.404;7.734;2023-05-02T05:57:42;97737.25;;;8.84;100.00
23616;BME280;11985;49.404;7.734;2023-05-02T06:02:45;97746.34;;;9.18;100.00
23616;BME280;11985;49.404;7.734;2023-05-02T06:07:47;97750.19;;;9.37;100.00
23616;BME280;11985;49.404;7.734;2023-05-02T06:12:49;97750.53;;;9.48;100.00
23616;BME280;11985;49.404;7.734;2023-05-02T06:17:52;97757.91;;;9.60;100.00
23616;BME280;11985;49.404;7.734;2023-05-02T06:22:53;97766.81;;;9.80;100.00
23616;BME280;11985;49.404;7.734;2023-05-02T06:27:55;97765.81;;;10.02;100.00
23616;BME280;11985;49.404;7.734;2023-05-02T06:32:58;97775.31;;;10.25;100.00
23616;BME280;11985;49.404;7.734;2023-05-02T06:37:59;97781.84;;;10.29;100.00
23616;BME280;11985;49.404;7.734;2023-05-02T06:43:01;97787.44;;;10.47;100.00
23616;BME280;11985;49.404;7.734;2023-05-02T06:48:05;97795.53;;;10.74;100.00
23616;BME280;11985;49.404;7.734;2023-05-02T06:53:06;97791.66;;;10.76;100.00
23616;BME280;11985;49.404;7.734;2023-05-02T06:58:08;97798.75;;;10.76;100.00
23616;BME280;11985;49.404;7.734;2023-05-02T07:03:11;97798.41;;;10.79;100.00
23616;BME280;11985;49.404;7.734;2023-05-02T07:08:13;97809.81;;;10.93;100.00
23616;BME280;11985;49.404;7.734;2023-05-02T07:13:14;97813.72;;;11.03;100.00
23616;BME280;11985;49.404;7.734;2023-05-02T07:18:17;97823.25;;;11.04;100.00
23616;BME280;11985;49.404;7.734;2023-05-02T07:23:19;97817.09;;;10.91;100.00
23616;BME280;11985;49.404;7.734;2023-05-02T07:28:21;97829.44;;;11.25;100.00
23616;BME280;11985;49.404;7.734;2023-05-02T07:33:24;97832.53;;;11.35;100.00
23616;BME280;11985;49.404;7.734;2023-05-02T07:38:26;97827.88;;;11.37;100.00
23616;BME280;11985;49.404;7.734;2023-05-02T07:43:28;97832.66;;;11.20;100.00
23616;BME280;11985;49.404;7.734;2023-05-02T07:48:31;97830.75;;;11.49;100.00
23616;BME280;11985;49.404;7.734;2023-05-02T07:53:33;97830.50;;;11.98;100.00
23616;BME280;11985;49.404;7.734;2023-05-02T07:58:35;97828.50;;;12.13;100.00
23616;BME280;11985;49.404;7.734;2023-05-02T08:03:38;97843.94;;;12.03;100.00
23616;BME280;11985;49.404;7.734;2023-05-02T08:08:40;97844.94;;;12.09;100.00
23616;BME280;11985;49.404;7.734;2023-05-02T08:13:41;97847.00;;;12.13;100.00
23616;BME280;11985;49.404;7.734;2023-05-02T08:18:44;97852.50;;;12.32;100.00
23616;BME280;11985;49.404;7.734;2023-05-02T08:23:46;97859.00;;;12.42;100.00
23616;BME280;11985;49.404;7.734;2023-05-02T08:28:48;97866.75;;;12.51;100.00
23616;BME280;11985;49.404;7.734;2023-05-02T08:33:51;97862.25;;;12.64;100.00
23616;BME280;11985;49.404;7.734;2023-05-02T08:38:52;97872.63;;;12.59;100.00
23616;BME280;11985;49.404;7.734;2023-05-02T08:43:55;97887.88;;;12.64;100.00
23616;BME280;11985;49.404;7.734;2023-05-02T08:48:59;97886.63;;;12.27;100.00
23616;BME280;11985;49.404;7.734;2023-05-02T08:54:02;97888.22;;;12.14;100.00
23616;BME280;11985;49.404;7.734;2023-05-02T08:59:05;97898.84;;;12.34;100.00
23616;BME280;11985;49.404;7.734;2023-05-02T09:04:09;97894.78;;;12.65;99.65
23616;BME280;11985;49.404;7.734;2023-05-02T09:09:11;97899.06;;;12.86;98.11
23616;BME280;11985;49.404;7.734;2023-05-02T09:14:13;97902.72;;;12.72;98.19
23616;BME280;11985;49.404;7.734;2023-05-02T09:19:24;97913.91;;;12.80;97.73
23616;BME280;11985;49.404;7.734;2023-05-02T09:24:26;97914.47;;;12.36;96.59
23616;BME280;11985;49.404;7.734;2023-05-02T09:29:29;97907.59;;;12.61;99.15
23616;BME280;11985;49.404;7.734;2023-05-02T09:34:36;97917.78;;;12.78;97.26
23616;BME280;11985;49.404;7.734;2023-05-02T09:39:38;97913.50;;;12.90;96.63
23616;BME280;11985;49.404;7.734;2023-05-02T09:44:40;97920.22;;;12.73;95.82
23616;BME280;11985;49.404;7.734;2023-05-02T09:49:45;97936.03;;;12.39;96.75
23616;BME280;11985;49.404;7.734;2023-05-02T09:54:47;97944.19;;;12.58;96.76
23616;BME280;11985;49.404;7.734;2023-05-02T09:59:55;97947.00;;;12.43;95.67
23616;BME280;11985;49.404;7.734;2023-05-02T10:05:00;97949.28;;;12.86;95.86
23616;BME280;11985;49.404;7.734;2023-05-02T10:10:02;97948.06;;;12.95;94.13
23616;BME280;11985;49.404;7.734;2023-05-02T10:15:05;97963.09;;;13.14;91.48
23616;BME280;11985;49.404;7.734;2023-05-02T10:20:12;97966.38;;;13.36;90.66
23616;BME280;11985;49.404;7.734;2023-05-02T10:25:15;97958.56;;;13.68;89.26
23616;BME280;11985;49.404;7.734;2023-05-02T10:30:17;97954.03;;;13.88;85.59
23616;BME280;11985;49.404;7.734;2023-05-02T10:35:22;97945.50;;;13.80;82.31
23616;BME280;11985;49.404;7.734;2023-05-02T10:40:26;97949.66;;;14.07;79.84
23616;BME280;11985;49.404;7.734;2023-05-02T10:45:31;97942.88;;;14.18;78.19
23616;BME280;11985;49.404;7.734;2023-05-02T10:50:43;97948.72;;;13.82;77.86
23616;BME280;11985;49.404;7.734;2023-05-02T10:56:13;97954.53;;;13.52;77.24
23616;BME280;11985;49.404;7.734;2023-05-02T11:01:34;97956.19;;;13.40;78.59
23616;BME280;11985;49.404;7.734;2023-05-02T11:07:18;97942.72;;;13.61;79.09
23616;BME280;11985;49.404;7.734;2023-05-02T11:12:42;97944.72;;;13.59;79.39
23616;BME280;11985;49.404;7.734;2023-05-02T11:17:58;97942.91;;;14.11;78.42
23616;BME280;11985;49.404;7.734;2023-05-02T11:23:19;97941.31;;;14.42;76.05
23616;BME280;11985;49.404;7.734;2023-05-02T11:28:43;97942.44;;;14.27;75.75
23616;BME280;11985;49.404;7.734;2023-05-02T11:33:54;97940.44;;;14.16;76.68
23616;BME280;11985;49.404;7.734;2023-05-02T11:38:58;97932.69;;;14.21;77.91
23616;BME280;11985;49.404;7.734;2023-05-02T11:44:03;97931.91;;;14.08;77.25
23616;BME280;11985;49.404;7.734;2023-05-02T11:49:05;97922.97;;;14.02;78.33
23616;BME280;11985;49.404;7.734;2023-05-02T11:54:08;97917.91;;;14.39;78.51
23616;BME280;11985;49.404;7.734;2023-05-02T11:59:16;97916.09;;;15.14;75.42
23616;BME280;11985;49.404;7.734;2023-05-02T12:04:18;97927.00;;;15.68;72.51
23616;BME280;11985;49.404;7.734;2023-05-02T12:09:24;97930.38;;;15.56;71.55
23616;BME280;11985;49.404;7.734;2023-05-02T12:14:27;97933.44;;;14.92;72.58
23616;BME280;11985;49.404;7.734;2023-05-02T12:19:29;97944.81;;;14.36;78.75
23616;BME280;11985;49.404;7.734;2023-05-02T12:24:32;97947.53;;;13.71;85.60
23616;BME280;11985;49.404;7.734;2023-05-02T12:29:39;97953.13;;;13.50;88.81
23616;BME280;11985;49.404;7.734;2023-05-02T12:34:41;97944.75;;;13.53;92.77
23616;BME280;11985;49.404;7.734;2023-05-02T12:39:44;97945.19;;;14.01;94.59
23616;BME280;11985;49.404;7.734;2023-05-02T12:44:47;97936.56;;;14.57;92.42
23616;BME280;11985;49.404;7.734;2023-05-02T12:49:49;97929.97;;;15.16;89.39
23616;BME280;11985;49.404;7.734;2023-05-02T12:54:52;97931.50;;;15.67;84.64
23616;BME280;11985;49.404;7.734;2023-05-02T12:59:54;97936.38;;;15.89;80.54
23616;BME280;11985;49.404;7.734;2023-05-02T13:04:56;97927.41;;;16.31;73.20
23616;BME280;11985;49.404;7.734;2023-05-02T13:09:59;97935.94;;;15.73;68.45
23616;BME280;11985;49.404;7.734;2023-05-02T13:15:00;97941.53;;;15.22;71.90
23616;BME280;11985;49.404;7.734;2023-05-02T13:20:03;97935.00;;;14.99;75.62
23616;BME280;11985;49.404;7.734;2023-05-02T13:25:08;97939.06;;;15.02;74.68
23616;BME280;11985;49.404;7.734;2023-05-02T13:30:11;97938.97;;;15.34;73.98
23616;BME280;11985;49.404;7.734;2023-05-02T13:35:13;97935.59;;;15.45;72.03
23616;BME280;11985;49.404;7.734;2023-05-02T13:40:17;97938.50;;;15.80;71.54
23616;BME280;11985;49.404;7.734;2023-05-02T13:45:18;97933.91;;;16.35;68.91
23616;BME280;11985;49.404;7.734;2023-05-02T13:50:20;97926.78;;;17.25;64.99
23616;BME280;11985;49.404;7.734;2023-05-02T13:55:23;97914.09;;;17.90;61.50
23616;BME280;11985;49.404;7.734;2023-05-02T14:00:25;97921.97;;;18.42;59.32
23616;BME280;11985;49.404;7.734;2023-05-02T14:05:28;97920.94;;;18.72;56.83
23616;BME280;11985;49.404;7.734;2023-05-02T14:10:31;97922.00;;;18.88;57.08
23616;BME280;11985;49.404;7.734;2023-05-02T14:15:33;97921.72;;;18.72;54.67
23616;BME280;11985;49.404;7.734;2023-05-02T14:20:34;97923.97;;;17.43;54.56
23616;BME280;11985;49.404;7.734;2023-05-02T14:25:37;97934.81;;;16.29;56.27
23616;BME280;11985;49.404;7.734;2023-05-02T14:30:39;97935.78;;;15.68;58.02
23616;BME280;11985;49.404;7.734;2023-05-02T14:35:40;97935.28;;;15.53;59.42
23616;BME280;11985;49.404;7.734;2023-05-02T14:40:43;97937.47;;;15.81;59.40
23616;BME280;11985;49.404;7.734;2023-05-02T14:45:45;97935.06;;;16.09;59.15
23616;BME280;11985;49.404;7.734;2023-05-02T14:50:47;97936.94;;;15.91;59.42
23616;BME280;11985;49.404;7.734;2023-05-02T14:55:50;97933.44;;;16.08;59.53
23616;BME280;11985;49.404;7.734;2023-05-02T15:00:52;97924.94;;;16.60;58.61
23616;BME280;11985;49.404;7.734;2023-05-02T15:05:55;97924.81;;;17.20;56.75
23616;BME280;11985;49.404;7.734;2023-05-02T15:10:58;97920.16;;;17.62;55.03
23616;BME280;11985;49.404;7.734;2023-05-02T15:15:59;97911.69;;;17.77;54.50
23616;BME280;11985;49.404;7.734;2023-05-02T15:21:01;97907.25;;;17.94;52.43
23616;BME280;11985;49.404;7.734;2023-05-02T15:26:04;97911.47;;;18.36;51.84
23616;BME280;11985;49.404;7.734;2023-05-02T15:31:06;97919.00;;;18.84;51.36
23616;BME280;11985;49.404;7.734;2023-05-02T15:36:08;97927.75;;;17.94;51.03
23616;BME280;11985;49.404;7.734;2023-05-02T15:41:11;97928.03;;;17.46;52.94
23616;BME280;11985;49.404;7.734;2023-05-02T15:46:13;97927.78;;;17.59;52.06
23616;BME280;11985;49.404;7.734;2023-05-02T15:51:15;97924.53;;;17.80;51.51
23616;BME280;11985;49.404;7.734;2023-05-02T15:56:18;97929.63;;;17.93;50.93
23616;BME280;11985;49.404;7.734;2023-05-02T16:01:20;97929.06;;;17.68;50.39
23616;BME280;11985;49.404;7.734;2023-05-02T16:06:23;97929.09;;;17.21;50.90
23616;BME280;11985;49.404;7.734;2023-05-02T16:11:26;97928.75;;;17.29;51.20
23616;BME280;11985;49.404;7.734;2023-05-02T16:16:28;97927.25;;;17.33;50.43
23616;BME280;11985;49.404;7.734;2023-05-02T16:21:30;97926.16;;;17.58;50.84
23616;BME280;11985;49.404;7.734;2023-05-02T16:26:33;97913.81;;;17.40;50.17
23616;BME280;11985;49.404;7.734;2023-05-02T16:31:35;97919.44;;;17.67;49.53
23616;BME280;11985;49.404;7.734;2023-05-02T16:36:36;97917.22;;;18.73;48.06
23616;BME280;11985;49.404;7.734;2023-05-02T16:41:39;97935.41;;;19.48;46.32
23616;BME280;11985;49.404;7.734;2023-05-02T16:46:41;97927.28;;;19.77;45.04
23616;BME280;11985;49.404;7.734;2023-05-02T16:51:43;97939.38;;;20.82;43.97
23616;BME280;11985;49.404;7.734;2023-05-02T16:56:49;97934.44;;;21.01;42.96
23616;BME280;11985;49.404;7.734;2023-05-02T17:01:51;97934.69;;;23.03;41.13
23616;BME280;11985;49.404;7.734;2023-05-02T17:06:53;97943.19;;;22.29;40.14
23616;BME280;11985;49.404;7.734;2023-05-02T17:11:56;97949.00;;;21.16;40.96
23616;BME280;11985;49.404;7.734;2023-05-02T17:16:58;97953.81;;;19.84;42.30
23616;BME280;11985;49.404;7.734;2023-05-02T17:21:59;97960.22;;;20.04;42.64
23616;BME280;11985;49.404;7.734;2023-05-02T17:27:03;97965.44;;;17.62;44.99
23616;BME280;11985;49.404;7.734;2023-05-02T17:32:05;97970.91;;;15.89;48.58
23616;BME280;11985;49.404;7.734;2023-05-02T17:37:07;97975.06;;;15.16;51.41
23616;BME280;11985;49.404;7.734;2023-05-02T17:42:10;97977.06;;;14.64;53.83
23616;BME280;11985;49.404;7.734;2023-05-02T17:47:12;97980.69;;;14.32;55.53
23616;BME280;11985;49.404;7.734;2023-05-02T17:52:13;97977.59;;;13.96;57.16
23616;BME280;11985;49.404;7.734;2023-05-02T17:57:16;97990.75;;;13.71;58.35
23616;BME280;11985;49.404;7.734;2023-05-02T18:02:18;97994.22;;;13.52;59.81
23616;BME280;11985;49.404;7.734;2023-05-02T18:07:21;98004.81;;;13.32;60.68
23616;BME280;11985;49.404;7.734;2023-05-02T18:12:25;98010.75;;;13.34;61.47
23616;BME280;11985;49.404;7.734;2023-05-02T18:17:27;98019.09;;;13.25;62.05
23616;BME280;11985;49.404;7.734;2023-05-02T18:22:28;98016.41;;;13.05;62.92
23616;BME280;11985;49.404;7.734;2023-05-02T18:27:31;98021.69;;;12.85;63.82
23616;BME280;11985;49.404;7.734;2023-05-02T18:32:33;98022.88;;;12.76;65.11
23616;BME280;11985;49.404;7.734;2023-05-02T18:37:35;98036.50;;;12.66;65.01
23616;BME280;11985;49.404;7.734;2023-05-02T18:42:38;98041.13;;;12.44;65.08
23616;BME280;11985;49.404;7.734;2023-05-02T18:47:39;98058.94;;;12.29;65.37
23616;BME280;11985;49.404;7.734;2023-05-02T18:52:41;98068.19;;;12.11;65.90
23616;BME280;11985;49.404;7.734;2023-05-02T18:57:44;98077.47;;;12.01;66.65
23616;BME280;11985;49.404;7.734;2023-05-02T19:02:46;98087.56;;;11.91;67.45
23616;BME280;11985;49.404;7.734;2023-05-02T19:07:47;98092.63;;;11.85;68.03
23616;BME280;11985;49.404;7.734;2023-05-02T19:12:50;98089.53;;;11.82;68.20
23616;BME280;11985;49.404;7.734;2023-05-02T19:17:52;98095.19;;;11.79;68.03
23616;BME280;11985;49.404;7.734;2023-05-02T19:22:54;98098.94;;;11.63;68.36
23616;BME280;11985;49.404;7.734;2023-05-02T19:27:57;98109.19;;;11.51;68.56
23616;BME280;11985;49.404;7.734;2023-05-02T19:32:59;98117.56;;;11.33;68.48
23616;BME280;11985;49.404;7.734;2023-05-02T19:38:01;98122.66;;;11.14;68.88
23616;BME280;11985;49.404;7.734;2023-05-02T19:43:04;98128.97;;;10.98;69.43
23616;BME280;11985;49.404;7.734;2023-05-02T19:48:05;98137.56;;;10.85;69.09
23616;BME280;11985;49.404;7.734;2023-05-02T19:53:07;98145.69;;;10.69;69.56
23616;BME280;11985;49.404;7.734;2023-05-02T19:58:10;98142.09;;;10.55;69.93
23616;BME280;11985;49.404;7.734;2023-05-02T20:03:12;98152.25;;;10.43;70.39
23616;BME280;11985;49.404;7.734;2023-05-02T20:08:14;98147.81;;;10.29;70.65
23616;BME280;11985;49.404;7.734;2023-05-02T20:13:17;98146.13;;;10.13;71.04
23616;BME280;11985;49.404;7.734;2023-05-02T20:18:19;98149.41;;;10.00;71.43
23616;BME280;11985;49.404;7.734;2023-05-02T20:23:21;98143.88;;;9.95;71.81
23616;BME280;11985;49.404;7.734;2023-05-02T20:28:24;98149.69;;;10.05;71.94
23616;BME280;11985;49.404;7.734;2023-05-02T20:33:26;98150.94;;;10.10;72.40
23616;BME280;11985;49.404;7.734;2023-05-02T20:38:27;98161.13;;;10.13;72.39
23616;BME280;11985;49.404;7.734;2023-05-02T20:43:30;98169.75;;;10.07;72.38
23616;BME280;11985;49.404;7.734;2023-05-02T20:48:34;98173.81;;;9.94;72.31
23616;BME280;11985;49.404;7.734;2023-05-02T20:53:38;98182.47;;;9.80;73.17
23616;BME280;11985;49.404;7.734;2023-05-02T20:58:41;98179.00;;;9.65;73.62
23616;BME280;11985;49.404;7.734;2023-05-02T21:03:43;98178.16;;;9.49;74.21
23616;BME280;11985;49.404;7.734;2023-05-02T21:08:44;98184.50;;;9.32;75.30
23616;BME280;11985;49.404;7.734;2023-05-02T21:13:47;98186.72;;;9.20;76.21
23616;BME280;11985;49.404;7.734;2023-05-02T21:18:49;98179.09;;;9.03;77.61
23616;BME280;11985;49.404;7.734;2023-05-02T21:23:50;98185.13;;;8.88;78.90
23616;BME280;11985;49.404;7.734;2023-05-02T21:28:53;98188.16;;;8.69;80.49
23616;BME280;11985;49.404;7.734;2023-05-02T21:33:55;98187.41;;;8.52;82.14
23616;BME280;11985;49.404;7.734;2023-05-02T21:38:57;98192.50;;;8.45;83.21
23616;BME280;11985;49.404;7.734;2023-05-02T21:44:00;98190.38;;;8.33;84.55
23616;BME280;11985;49.404;7.734;2023-05-02T21:49:01;98183.38;;;8.17;85.74
23616;BME280;11985;49.404;7.734;2023-05-02T21:54:03;98182.75;;;7.99;87.18
23616;BME280;11985;49.404;7.734;2023-05-02T21:59:06;98189.00;;;7.89;88.37
23616;BME280;11985;49.404;7.734;2023-05-02T22:04:08;98184.56;;;7.82;89.66
23616;BME280;11985;49.404;7.734;2023-05-02T22:09:09;98180.66;;;7.78;89.91
23616;BME280;11985;49.404;7.734;2023-05-02T22:14:14;98177.03;;;7.71;90.57
23616;BME280;11985;49.404;7.734;2023-05-02T22:19:15;98187.06;;;7.67;90.60
23616;BME280;11985;49.404;7.734;2023-05-02T22:24:18;98182.47;;;7.69;90.32
23616;BME280;11985;49.404;7.734;2023-05-02T22:29:21;98182.94;;;7.64;90.47
23616;BME280;11985;49.404;7.734;2023-05-02T22:34:23;98189.00;;;7.49;90.87
23616;BME280;11985;49.404;7.734;2023-05-02T22:39:24;98193.13;;;7.51;90.73
23616;BME280;11985;49.404;7.734;2023-05-02T22:44:28;98194.25;;;7.49;91.13
23616;BME280;11985;49.404;7.734;2023-05-02T22:49:30;98201.13;;;7.33;92.03
23616;BME280;11985;49.404;7.734;2023-05-02T22:54:32;98203.06;;;7.31;92.27
23616;BME280;11985;49.404;7.734;2023-05-02T22:59:35;98205.34;;;7.18;92.76
23616;BME280;11985;49.404;7.734;2023-05-02T23:04:36;98201.41;;;7.06;93.94
23616;BME280;11985;49.404;7.734;2023-05-02T23:09:38;98206.63;;;6.98;94.83
23616;BME280;11985;49.404;7.734;2023-05-02T23:14:41;98217.84;;;6.82;95.94
23616;BME280;11985;49.404;7.734;2023-05-02T23:19:42;98215.34;;;6.64;97.09
23616;BME280;11985;49.404;7.734;2023-05-02T23:24:44;98210.44;;;6.61;98.63
23616;BME280;11985;49.404;7.734;2023-05-02T23:29:48;98223.47;;;6.53;99.51
23616;BME280;11985;49.404;7.734;2023-05-02T23:34:49;98208.09;;;6.50;100.00
23616;BME280;11985;49.404;7.734;2023-05-02T23:39:51;98221.47;;;6.47;100.00
23616;BME280;11985;49.404;7.734;2023-05-02T23:44:54;98213.31;;;6.50;100.00
23616;BME280;11985;49.404;7.734;2023-05-02T23:49:56;98225.72;;;6.48;100.00
23616;BME280;11985;49.404;7.734;2023-05-02T23:54:58;98220.28;;;6.33;100.00
